• Join FlightAware (Why Join?)
  • Login
  • US Flag 
12:18AM EST


 

Airport Tracker/Info


-or-


 

Live Flight TrackerFlight Track Log ✈ N415JA ✈ 15-Feb-2014 ✈ MUHA / HAV - KMIA

Flight Track Log - Related Links

Times and Time Zones

All times are in EST time to prevent confusion due to time zone crossing. See the N415JA flight status page for this flight to view local times or setup timezone preferences in your user account.

Time Position Orientation Groundspeed Altitude Reporting Facility
EST Latitude Longitude Course Direction KTS MPH feet Rate Location/Type
11:37AM 23.2297 -82.6356 355° North 401 461 19,900  Level Miami Center
11:38AM 23.3392 -82.6133 11° North 395 455 22,300 2,280 Climbing Miami Center
11:39AM 23.0009 -82.4080 North  Level FlightAware Approximate
11:39AM 23.4461 -82.5978 North 395 455 24,500  Level Miami Center
11:40AM 23.0887 -82.3995 North  Level FlightAware Approximate
11:40AM 23.5633 -82.5872 North 395 455 25,000  Level Miami Center
11:41AM 23.1531 -82.4167 North  Level FlightAware Approximate
11:41AM 23.6792 -82.5653 10° North 406 467 25,000  Level Miami Center
11:42AM 23.2412 -82.4191 355° North  Level FlightAware Approximate
11:42AM 23.7903 -82.5500 North 414 476 25,000  Level Miami Center
11:43AM 23.9078 -82.5325 North 414 476 25,000  Level Miami Center
11:44AM 24.0164 -82.4783 24° Northeast 414 476 25,000  Level Miami Center
11:45AM 24.1056 -82.3822 45° Northeast 419 482 25,000  Level Miami Center
11:46AM 24.1847 -82.2742 51° Northeast 429 494 25,000  Level Miami Center
11:47AM 24.2736 -82.1800 44° Northeast 435 501 25,000  Level Miami Center
11:48AM 24.3664 -82.0931 40° Northeast 435 501 25,000 -300 Level Miami Center
11:49AM 24.4553 -82.0031 43° Northeast 435 501 24,500 -480 Descending Miami Center
11:50AM 24.5439 -81.9156 42° Northeast 424 488 24,100 -300 Descending Miami Center
11:51AM 24.6325 -81.8300 41° Northeast 424 488 24,000 -180 Descending Miami Center
11:52AM 24.7361 -81.7267 42° Northeast 436 502 23,800 -360 Descending Miami Center
11:53AM 24.8311 -81.6319 42° Northeast 443 510 23,300 -420 Descending Miami Center
11:54AM 24.9131 -81.5506 42° Northeast 443 510 23,000 -180 Descending Miami Center
11:55AM 25.0078 -81.4556 42° Northeast 443 510 23,000  Level Miami Center
11:56AM 25.1006 -81.3628 42° Northeast 443 510 23,000 -240 Level Miami Center
11:57AM 25.1953 -81.2697 42° Northeast 448 516 22,600 -1,320 Descending Miami Center
11:58AM 25.2856 -81.1767 43° Northeast 448 516 20,400 -2,100 Descending Miami Center
11:59AM 25.3758 -81.0903 41° Northeast 438 504 18,400 -2,220 Descending Miami Center
12:00PM 25.4406 -81.0236 43° Northeast 420 483 16,700 -2,220 Descending Miami Center
12:00PM 25.4597 -81.0058 40° Northeast 425 489 16,200 -1,920 Descending Miami Center
12:01PM 25.5331 -80.9231 46° Northeast 363 418 14,400 -1,920 Descending Miami Center
12:01PM 25.5372 -80.9233 357° North 399 459 14,300 -1,860 Descending Miami Center
12:02PM 25.5858 -80.8258 61° Northeast 368 423 12,500 -1,800 Descending Miami Center
12:02PM 25.5900 -80.8258 360° North 379 436 12,500 -1,500 Level Miami Center
12:03PM 25.6425 -80.7356 57° Northeast 361 415 11,000 -1,620 Descending Miami Center
12:03PM 25.6472 -80.7172 74° East 352 405 10,800 -1,020 Descending Miami Center
12:04PM 25.6908 -80.6450 56° Northeast 340 391 10,000 -900 Descending Miami Center
12:05PM 25.7456 -80.5544 56° Northeast 328 377 9,100 -840 Descending Miami Center
12:05PM 25.7411 -80.5564 202° Southwest 308 354 9,200 -960 Climbing Miami Center
12:06PM 25.7869 -80.4794 57° Northeast 301 346 8,100 -660 Descending Miami Center
12:07PM 25.8306 -80.4069 56° Northeast 291 335 7,900 -120 Descending Miami Center
12:07PM 25.8286 -80.4044 131° Southeast 258 297 8,000  Climbing Miami Center
12:08PM 25.8553 -80.3292 68° East 268 308 7,900  Descending Miami Center
12:08PM 25.8533 -80.3244 115° Southeast 268 308 8,000 -720 Climbing Miami Center
12:09PM 25.8739 -80.2511 73° East 257 296 7,200 -900 Descending Miami Center
12:09PM 25.8719 -80.2442 107° East 262 302 7,100 -1,440 Descending Miami Center
12:10PM 25.8947 -80.1664 72° East 261 300 5,600 -1,380 Descending Miami Center
12:11PM 25.9044 -80.0950 81° East 237 273 4,300 -1,200 Descending Miami Center
12:12PM 25.8636 -80.0617 144° Southeast 188 216 3,200 -660 Descending Miami Center
12:13PM 25.8192 -80.0881 208° Southwest 171 197 3,000 -300 Descending Miami Center
12:14PM 25.8097 -80.1294 256° West 147 169 2,700 -600 Descending Miami Center
12:15PM 25.8044 -80.1778 263° West 152 175 1,900 -840 Descending Miami Center
12:16PM 25.8056 -80.2217 272° West 132 152 1,100 -780 Descending Miami Center
12:17PM 25.8006 -80.2653 263° West 123 142 300 -720 Descending Miami Center